createdAt,value
2022-07-31T00:00:22.185Z,3.35
2022-07-31T00:03:04.082Z,3.45
2022-07-31T00:05:31.419Z,3.58
2022-07-31T00:08:05.856Z,3.35
2022-07-31T00:10:33.241Z,3.22
2022-07-31T00:13:00.299Z,3.70
2022-07-31T00:15:27.436Z,4.72
2022-07-31T00:17:54.702Z,3.97
2022-07-31T00:20:21.819Z,4.20
2022-07-31T00:22:49.250Z,4.72
2022-07-31T00:25:17.370Z,3.95
2022-07-31T00:27:45.162Z,4.30
2022-07-31T00:30:17.488Z,3.80
2022-07-31T00:32:45.829Z,3.30
2022-07-31T00:35:14.223Z,3.30
2022-07-31T00:37:43.115Z,3.15
2022-07-31T00:40:13.252Z,3.28
2022-07-31T00:42:40.388Z,3.50
2022-07-31T00:45:08.179Z,3.17
2022-07-31T00:47:35.683Z,3.33
2022-07-31T00:50:04.556Z,3.50
2022-07-31T00:52:31.675Z,3.22
2022-07-31T00:54:58.991Z,3.72
2022-07-31T00:57:26.102Z,4.00
2022-07-31T00:59:53.330Z,3.97
2022-07-31T01:02:20.706Z,4.88
2022-07-31T01:04:47.783Z,3.80
2022-07-31T01:07:14.965Z,3.40
2022-07-31T01:09:42.577Z,3.03
2022-07-31T01:12:18.146Z,4.07
2022-07-31T01:14:49.830Z,3.33
2022-07-31T01:17:19.252Z,3.33
2022-07-31T01:19:48.791Z,3.28
2022-07-31T01:22:34.261Z,3.00
2022-07-31T01:25:16.264Z,3.40
2022-07-31T01:28:21.633Z,3.88
2022-07-31T01:31:17.059Z,2.92
2022-07-31T01:33:51.380Z,3.05
2022-07-31T01:36:25.807Z,3.40
2022-07-31T01:38:55.929Z,2.75
2022-07-31T01:41:32.262Z,3.28
2022-07-31T01:44:03.341Z,2.70
2022-07-31T01:46:37.515Z,3.03
2022-07-31T01:49:12.532Z,3.22
2022-07-31T01:51:41.720Z,3.00
2022-07-31T01:54:12.411Z,3.08
2022-07-31T01:56:41.079Z,3.17
2022-07-31T01:59:15.588Z,3.70
2022-07-31T02:02:06.934Z,2.63
2022-07-31T02:04:38.253Z,3.00
2022-07-31T02:07:08.178Z,3.03
2022-07-31T02:09:37.709Z,3.38
2022-07-31T02:12:33.121Z,2.85
2022-07-31T02:15:05.428Z,2.75
2022-07-31T02:17:34.829Z,3.42
2022-07-31T02:20:21.478Z,2.55
2022-07-31T02:22:50.569Z,3.20
2022-07-31T02:25:17.711Z,3.00
2022-07-31T02:27:54.420Z,3.72
2022-07-31T02:30:39.723Z,3.40
2022-07-31T02:33:14.535Z,4.03
2022-07-31T02:35:45.415Z,3.90
2022-07-31T02:38:22.145Z,3.33
2022-07-31T02:40:55.408Z,3.35
2022-07-31T02:43:24.633Z,3.60
2022-07-31T02:45:54.836Z,3.10
2022-07-31T02:48:22.906Z,3.00
2022-07-31T02:50:51.813Z,3.08
2022-07-31T02:53:20.136Z,3.25
2022-07-31T02:55:51.734Z,3.80
2022-07-31T02:58:18.996Z,3.47
2022-07-31T03:00:47.720Z,3.20
2022-07-31T03:03:17.153Z,3.58
2022-07-31T03:05:44.853Z,3.42
2022-07-31T03:08:15.361Z,3.40
2022-07-31T03:10:47.226Z,3.05
2022-07-31T03:13:15.927Z,3.92
2022-07-31T03:15:51.016Z,2.90
2022-07-31T03:18:19.491Z,3.33
2022-07-31T03:20:47.102Z,3.08
2022-07-31T03:23:14.823Z,3.08
2022-07-31T03:25:52.185Z,3.30
2022-07-31T03:28:21.016Z,2.55
2022-07-31T03:30:51.853Z,2.83
2022-07-31T03:33:25.062Z,3.28
2022-07-31T03:35:53.303Z,3.00
2022-07-31T03:38:39.314Z,3.20
2022-07-31T03:41:08.974Z,3.63
2022-07-31T03:43:44.062Z,3.25
2022-07-31T03:46:19.356Z,2.63
2022-07-31T03:48:47.125Z,2.88
2022-07-31T03:51:15.628Z,3.10
2022-07-31T03:53:43.568Z,2.80
2022-07-31T03:56:19.014Z,2.60
2022-07-31T03:58:46.717Z,3.20
2022-07-31T04:01:20.752Z,2.22
2022-07-31T04:03:58.284Z,2.65
2022-07-31T04:06:38.859Z,2.65
2022-07-31T04:09:15.532Z,2.30
2022-07-31T04:11:47.903Z,2.40
2022-07-31T04:14:15.368Z,3.22
2022-07-31T04:16:42.614Z,2.80
2022-07-31T04:19:09.718Z,2.63
2022-07-31T04:21:37.029Z,2.67
2022-07-31T04:24:05.602Z,2.50
2022-07-31T04:26:41.751Z,2.58
2022-07-31T04:29:08.874Z,3.05
2022-07-31T04:31:36.959Z,3.92
2022-07-31T04:34:07.021Z,3.00
2022-07-31T04:36:34.544Z,3.05
2022-07-31T04:39:02.202Z,3.00
2022-07-31T04:41:30.398Z,2.65
2022-07-31T04:44:00.837Z,2.90
2022-07-31T04:46:37.550Z,2.53
2022-07-31T04:49:04.996Z,2.92
2022-07-31T04:51:32.195Z,2.83
2022-07-31T04:53:59.475Z,2.65
2022-07-31T04:56:42.051Z,2.55
2022-07-31T04:59:12.254Z,2.50
2022-07-31T05:01:43.209Z,2.58
2022-07-31T05:04:11.549Z,3.20
2022-07-31T05:06:41.169Z,2.35
2022-07-31T05:09:18.400Z,2.55
2022-07-31T05:11:48.202Z,2.58
2022-07-31T05:14:17.884Z,2.35
2022-07-31T05:16:45.378Z,2.70
2022-07-31T05:19:14.871Z,2.97
2022-07-31T05:22:02.555Z,3.25
2022-07-31T05:25:03.442Z,2.88
2022-07-31T05:27:32.182Z,2.35
2022-07-31T05:30:04.000Z,2.80
2022-07-31T05:32:32.336Z,3.90
2022-07-31T05:34:59.536Z,4.82
2022-07-31T05:37:26.689Z,6.40
2022-07-31T05:39:54.050Z,5.57
2022-07-31T05:42:39.479Z,6.18
2022-07-31T05:45:24.442Z,4.43
2022-07-31T05:47:53.348Z,3.00
2022-07-31T05:50:21.646Z,4.35
2022-07-31T05:52:52.204Z,4.30
2022-07-31T05:55:43.725Z,2.85
2022-07-31T05:58:33.898Z,2.75
2022-07-31T06:01:02.263Z,2.88
2022-07-31T06:03:33.820Z,2.80
2022-07-31T06:06:20.152Z,2.90
2022-07-31T06:08:47.302Z,3.03
2022-07-31T06:11:14.390Z,2.38
2022-07-31T06:13:43.388Z,2.25
2022-07-31T06:16:19.681Z,2.60
2022-07-31T06:18:46.997Z,3.00
2022-07-31T06:23:40.345Z,3.10
2022-07-31T06:26:32.838Z,2.58
2022-07-31T06:29:01.433Z,2.58
2022-07-31T06:31:28.635Z,2.90
2022-07-31T06:33:57.830Z,3.30
2022-07-31T06:36:29.910Z,3.63
2022-07-31T06:38:58.570Z,3.60
2022-07-31T06:41:47.456Z,3.08
2022-07-31T06:44:35.613Z,3.38
2022-07-31T06:47:46.131Z,3.40
2022-07-31T06:50:23.811Z,3.05
2022-07-31T06:53:03.619Z,3.25
2022-07-31T06:55:33.028Z,3.70
2022-07-31T06:58:00.128Z,3.20
2022-07-31T07:00:27.397Z,3.30
2022-07-31T07:02:55.231Z,3.00
2022-07-31T07:05:22.534Z,2.60
2022-07-31T07:07:53.045Z,2.83
2022-07-31T07:10:20.977Z,2.63
2022-07-31T07:13:00.545Z,2.80
2022-07-31T07:15:32.427Z,3.05
2022-07-31T07:17:59.564Z,2.72
2022-07-31T07:20:35.774Z,2.78
2022-07-31T07:23:03.443Z,3.35
2022-07-31T07:25:59.885Z,3.35
2022-07-31T07:28:30.462Z,4.13
2022-07-31T07:31:00.795Z,3.60
2022-07-31T07:33:40.537Z,3.08
2022-07-31T07:36:23.426Z,4.35
2022-07-31T07:39:04.325Z,7.50
2022-07-31T07:41:33.823Z,10.98
2022-07-31T07:44:01.548Z,4.25
2022-07-31T07:46:30.530Z,4.40
2022-07-31T07:49:01.651Z,4.15
2022-07-31T07:51:58.743Z,3.22
2022-07-31T07:54:40.592Z,3.20
2022-07-31T07:57:26.316Z,3.53
2022-07-31T08:00:13.447Z,3.70
2022-07-31T08:02:44.974Z,2.95
2022-07-31T08:05:35.798Z,3.30
2022-07-31T08:08:03.759Z,4.15
2022-07-31T08:10:43.670Z,2.80
2022-07-31T08:13:16.158Z,2.70
2022-07-31T08:16:09.929Z,3.30
2022-07-31T08:18:51.739Z,2.97
2022-07-31T08:21:19.402Z,4.00
2022-07-31T08:23:47.705Z,3.72
2022-07-31T08:26:18.208Z,3.45
2022-07-31T08:28:49.988Z,4.95
2022-07-31T08:31:20.045Z,8.95
2022-07-31T08:34:02.078Z,5.57
2022-07-31T08:36:29.451Z,3.58
2022-07-31T08:38:56.587Z,3.63
2022-07-31T08:41:50.180Z,3.45
2022-07-31T08:44:17.600Z,3.05
2022-07-31T08:46:57.230Z,2.90
2022-07-31T08:49:26.540Z,3.63
2022-07-31T08:51:57.711Z,3.50
2022-07-31T08:54:55.960Z,4.53
2022-07-31T08:57:26.893Z,4.20
2022-07-31T08:59:55.430Z,3.38
2022-07-31T09:02:23.085Z,2.85
2022-07-31T09:05:11.131Z,3.50
2022-07-31T09:07:41.747Z,2.75
2022-07-31T09:10:23.232Z,3.05
2022-07-31T09:12:52.351Z,4.05
2022-07-31T09:15:25.860Z,3.90
2022-07-31T09:17:54.486Z,3.15
2022-07-31T09:20:29.431Z,4.53
2022-07-31T09:23:09.430Z,4.38
2022-07-31T09:25:50.730Z,3.05
2022-07-31T09:28:22.086Z,3.67
2022-07-31T09:30:57.015Z,2.80
2022-07-31T09:33:54.261Z,2.45
2022-07-31T09:36:56.219Z,2.88
2022-07-31T09:39:52.399Z,2.85
2022-07-31T09:42:46.024Z,3.78
2022-07-31T09:45:25.663Z,3.95
2022-07-31T09:48:05.793Z,3.92
2022-07-31T09:50:34.663Z,2.75
2022-07-31T09:53:02.341Z,2.60
2022-07-31T09:55:32.563Z,4.25
2022-07-31T09:58:01.149Z,2.63
2022-07-31T10:00:35.530Z,2.35
2022-07-31T10:03:03.727Z,3.13
2022-07-31T10:05:32.739Z,2.95
2022-07-31T10:08:05.468Z,4.10
2022-07-31T10:10:52.953Z,2.92
2022-07-31T10:13:25.771Z,3.65
2022-07-31T10:15:59.072Z,3.13
2022-07-31T10:18:56.539Z,3.03
2022-07-31T10:21:43.810Z,2.97
2022-07-31T10:24:16.530Z,3.67
2022-07-31T10:27:00.209Z,3.25
2022-07-31T10:29:33.424Z,3.22
2022-07-31T10:32:04.392Z,3.65
2022-07-31T10:34:35.016Z,2.78
2022-07-31T10:37:18.989Z,3.88
2022-07-31T10:40:43.090Z,2.00
2022-07-31T10:43:14.079Z,2.47
2022-07-31T10:45:52.895Z,2.70
2022-07-31T10:48:53.695Z,2.35
2022-07-31T10:51:50.276Z,2.70
2022-07-31T10:54:41.392Z,2.47
2022-07-31T10:57:56.661Z,2.15
2022-07-31T11:03:37.136Z,3.10
2022-07-31T11:06:44.729Z,3.63
2022-07-31T11:09:51.276Z,3.38
2022-07-31T11:13:08.228Z,3.58
2022-07-31T11:16:06.301Z,2.95
2022-07-31T11:19:02.017Z,2.92
2022-07-31T11:21:39.969Z,2.60
2022-07-31T11:24:14.712Z,2.75
2022-07-31T11:26:57.458Z,3.22
2022-07-31T11:30:00.319Z,2.72
2022-07-31T11:32:16.740Z,3.00
2022-07-31T11:34:56.594Z,2.80
2022-07-31T11:37:46.589Z,3.13
2022-07-31T11:40:22.227Z,2.67
2022-07-31T11:43:10.670Z,2.60
2022-07-31T11:45:52.967Z,2.00
2022-07-31T11:48:21.792Z,2.00
2022-07-31T11:50:51.113Z,2.78
2022-07-31T11:53:19.581Z,2.95
2022-07-31T11:55:55.778Z,2.35
2022-07-31T11:58:25.138Z,2.28
2022-07-31T12:00:57.282Z,2.33
2022-07-31T12:03:36.693Z,2.75
2022-07-31T12:06:06.103Z,3.45
2022-07-31T12:08:35.496Z,2.70
2022-07-31T12:11:05.712Z,3.80
2022-07-31T12:13:33.219Z,2.90
2022-07-31T12:16:02.650Z,3.38
2022-07-31T12:18:31.238Z,2.83
2022-07-31T12:21:02.372Z,2.92
2022-07-31T12:23:46.599Z,3.58
2022-07-31T12:26:31.941Z,3.38
2022-07-31T12:29:13.203Z,3.50
2022-07-31T12:31:49.602Z,3.75
2022-07-31T12:34:26.160Z,3.33
2022-07-31T12:37:16.149Z,3.58
2022-07-31T12:39:59.238Z,3.75
2022-07-31T12:42:40.850Z,4.65
2022-07-31T12:45:19.996Z,3.97
2022-07-31T12:47:51.956Z,4.35
2022-07-31T12:50:21.548Z,3.33
2022-07-31T12:52:48.930Z,3.47
2022-07-31T12:55:17.364Z,3.25
2022-07-31T12:57:47.898Z,4.25
2022-07-31T13:00:23.711Z,10.18
2022-07-31T13:02:52.591Z,7.28
2022-07-31T13:05:20.218Z,5.60
2022-07-31T13:07:47.701Z,7.65
2022-07-31T13:10:24.066Z,4.15
2022-07-31T13:12:52.864Z,5.82
2022-07-31T13:15:23.397Z,5.43
2022-07-31T13:17:51.285Z,6.35
2022-07-31T13:20:19.241Z,5.18
2022-07-31T13:22:46.805Z,6.63
2022-07-31T13:25:14.570Z,4.80
2022-07-31T13:27:41.863Z,4.80
2022-07-31T13:30:10.107Z,5.10
2022-07-31T13:32:40.242Z,5.55
2022-07-31T13:35:26.983Z,4.45
2022-07-31T13:37:55.498Z,6.20
2022-07-31T13:40:42.859Z,4.28
2022-07-31T13:43:10.379Z,3.90
2022-07-31T13:45:39.155Z,5.22
2022-07-31T13:48:09.297Z,3.78
2022-07-31T13:50:39.723Z,5.32
2022-07-31T13:53:07.285Z,3.33
2022-07-31T13:55:34.667Z,4.28
2022-07-31T13:58:02.159Z,3.58
2022-07-31T14:00:30.992Z,3.50
2022-07-31T14:02:58.595Z,4.05
2022-07-31T14:05:27.667Z,3.90
2022-07-31T14:08:29.534Z,4.22
2022-07-31T14:10:48.306Z,4.40
2022-07-31T14:13:18.557Z,4.28
2022-07-31T14:15:46.868Z,3.60
2022-07-31T14:18:14.569Z,4.30
2022-07-31T14:20:41.885Z,3.03
2022-07-31T14:23:09.390Z,3.33
2022-07-31T14:25:37.773Z,3.22
2022-07-31T14:28:06.197Z,2.67
2022-07-31T14:30:34.031Z,2.30
2022-07-31T14:33:02.310Z,2.97
2022-07-31T14:35:29.427Z,2.72
2022-07-31T14:37:56.635Z,3.22
2022-07-31T14:40:23.979Z,2.20
2022-07-31T14:42:51.217Z,2.72
2022-07-31T14:45:18.331Z,2.72
2022-07-31T14:47:46.438Z,5.20
2022-07-31T14:50:19.061Z,2.70
2022-07-31T14:52:47.569Z,2.58
2022-07-31T14:55:14.906Z,2.40
2022-07-31T14:57:42.137Z,2.95
2022-07-31T15:00:13.315Z,2.78
2022-07-31T15:02:42.554Z,2.90
2022-07-31T15:06:38.695Z,3.15
2022-07-31T15:07:58.075Z,3.53
2022-07-31T15:10:25.212Z,2.83
2022-07-31T15:12:55.447Z,4.88
2022-07-31T15:15:22.729Z,2.80
2022-07-31T15:17:49.919Z,3.28
2022-07-31T15:20:17.171Z,3.90
2022-07-31T15:22:44.488Z,2.90
2022-07-31T15:25:12.673Z,2.97
2022-07-31T15:27:39.786Z,2.92
2022-07-31T15:30:08.100Z,2.72
2022-07-31T15:32:37.492Z,3.00
2022-07-31T15:35:07.941Z,3.20
2022-07-31T15:37:44.313Z,5.90
2022-07-31T15:40:14.017Z,2.50
2022-07-31T15:42:43.800Z,3.20
2022-07-31T15:45:13.869Z,3.13
2022-07-31T15:47:42.146Z,2.45
2022-07-31T15:50:14.802Z,2.70
2022-07-31T15:52:42.703Z,2.45
2022-07-31T15:55:10.549Z,4.43
2022-07-31T15:57:40.549Z,4.97
2022-07-31T16:00:10.964Z,3.35
2022-07-31T16:02:39.207Z,2.55
2022-07-31T16:05:11.894Z,3.67
2022-07-31T16:08:30.113Z,2.35
2022-07-31T16:10:37.495Z,2.38
2022-07-31T16:13:04.964Z,2.50
2022-07-31T16:15:34.654Z,2.25
2022-07-31T16:18:02.295Z,2.10
2022-07-31T16:20:29.646Z,2.90
2022-07-31T16:23:01.654Z,2.80
2022-07-31T16:25:34.740Z,5.53
2022-07-31T16:28:04.206Z,2.67
2022-07-31T16:30:32.333Z,12.68
2022-07-31T16:32:59.634Z,47.72
2022-07-31T16:35:27.216Z,20.40
2022-07-31T16:37:54.700Z,27.85
2022-07-31T16:40:28.854Z,11.52
2022-07-31T16:43:48.025Z,3.95
2022-07-31T16:45:56.407Z,2.42
2022-07-31T16:48:24.016Z,2.33
2022-07-31T16:50:55.015Z,2.65
2022-07-31T16:54:11.366Z,5.15
2022-07-31T16:56:12.272Z,3.40
2022-07-31T16:58:39.966Z,3.53
2022-07-31T17:01:58.350Z,3.72
2022-07-31T17:04:00.106Z,6.72
2022-07-31T17:06:36.903Z,3.67
2022-07-31T17:09:17.048Z,4.93
2022-07-31T17:11:47.489Z,3.03
2022-07-31T17:14:16.277Z,3.42
2022-07-31T17:16:47.540Z,3.70
2022-07-31T17:19:35.989Z,3.85
2022-07-31T17:22:08.204Z,3.05
2022-07-31T17:24:38.886Z,3.35
2022-07-31T17:27:07.663Z,2.75
2022-07-31T17:29:36.148Z,3.05
2022-07-31T17:32:06.167Z,3.67
2022-07-31T17:34:35.562Z,2.92
2022-07-31T17:37:03.929Z,2.65
2022-07-31T17:39:31.512Z,3.38
2022-07-31T17:41:59.414Z,8.27
2022-07-31T17:44:27.371Z,13.88
2022-07-31T17:46:55.199Z,8.07
2022-07-31T17:49:25.562Z,6.30
2022-07-31T17:51:59.626Z,3.25
2022-07-31T17:54:31.666Z,3.50
2022-07-31T17:56:59.599Z,3.90
2022-07-31T17:59:27.186Z,4.38
2022-07-31T18:02:00.228Z,4.30
2022-07-31T18:04:29.851Z,5.63
2022-07-31T18:06:58.682Z,13.35
2022-07-31T18:09:27.303Z,4.70
2022-07-31T18:11:55.633Z,3.78
2022-07-31T18:14:24.305Z,3.70
2022-07-31T18:16:52.582Z,2.85
2022-07-31T18:19:21.615Z,2.90
2022-07-31T18:21:49.508Z,5.07
2022-07-31T18:24:16.735Z,5.50
2022-07-31T18:26:44.126Z,4.18
2022-07-31T18:29:11.320Z,4.13
2022-07-31T18:31:38.788Z,4.65
2022-07-31T18:34:07.022Z,3.28
2022-07-31T18:36:39.090Z,2.63
2022-07-31T18:39:06.851Z,3.35
2022-07-31T18:41:34.358Z,3.20
2022-07-31T18:44:01.561Z,7.40
2022-07-31T18:46:28.786Z,4.93
2022-07-31T18:48:56.834Z,3.45
2022-07-31T18:51:29.290Z,3.42
2022-07-31T18:53:56.944Z,2.90
2022-07-31T18:56:25.114Z,3.25
2022-07-31T18:58:53.174Z,2.83
2022-07-31T19:01:21.508Z,3.10
2022-07-31T19:03:49.520Z,3.63
2022-07-31T19:06:17.146Z,4.88
2022-07-31T19:08:44.485Z,14.65
2022-07-31T19:11:12.471Z,3.53
2022-07-31T19:13:39.649Z,4.75
2022-07-31T19:16:06.953Z,4.65
2022-07-31T19:18:34.470Z,3.45
2022-07-31T19:21:17.773Z,2.72
2022-07-31T19:23:49.565Z,2.55
2022-07-31T19:26:16.853Z,2.83
2022-07-31T19:28:44.058Z,2.53
2022-07-31T19:31:13.427Z,3.00
2022-07-31T19:33:41.135Z,2.70
2022-07-31T19:36:09.810Z,2.67
2022-07-31T19:38:37.636Z,2.92
2022-07-31T19:41:05.270Z,2.67
2022-07-31T19:43:33.191Z,2.88
2022-07-31T19:46:11.248Z,2.67
2022-07-31T19:48:44.498Z,2.47
2022-07-31T19:51:13.035Z,2.45
2022-07-31T19:53:40.515Z,3.35
2022-07-31T19:56:08.405Z,3.25
2022-07-31T19:58:37.367Z,3.05
2022-07-31T20:01:09.514Z,2.78
2022-07-31T20:03:37.253Z,2.88
2022-07-31T20:06:04.935Z,2.30
2022-07-31T20:08:33.274Z,2.95
2022-07-31T20:11:04.043Z,9.60
2022-07-31T20:13:34.293Z,9.02
2022-07-31T20:16:01.868Z,12.30
2022-07-31T20:18:29.935Z,7.22
2022-07-31T20:21:03.642Z,4.90
2022-07-31T20:23:34.250Z,10.67
2022-07-31T20:26:01.650Z,6.40
2022-07-31T20:28:28.906Z,5.65
2022-07-31T20:30:56.501Z,4.60
2022-07-31T20:33:24.038Z,7.97
2022-07-31T20:35:51.544Z,10.13
2022-07-31T20:38:23.340Z,5.90
2022-07-31T20:40:54.158Z,4.43
2022-07-31T20:43:34.199Z,3.78
2022-07-31T20:46:03.381Z,3.50
2022-07-31T20:48:35.007Z,3.50
2022-07-31T20:51:05.697Z,6.30
2022-07-31T20:53:35.499Z,6.70
2022-07-31T20:56:05.140Z,5.65
2022-07-31T20:58:32.338Z,4.72
2022-07-31T21:00:59.684Z,4.55
2022-07-31T21:03:26.786Z,4.85
2022-07-31T21:05:54.376Z,4.63
2022-07-31T21:08:21.747Z,4.43
2022-07-31T21:10:48.927Z,3.97
2022-07-31T21:13:16.038Z,4.05
2022-07-31T21:15:45.230Z,4.60
2022-07-31T21:18:14.054Z,5.93
2022-07-31T21:20:52.143Z,7.38
2022-07-31T21:23:22.881Z,8.93
2022-07-31T21:25:51.462Z,9.55
2022-07-31T21:28:19.384Z,9.45
2022-07-31T21:30:47.098Z,8.70
2022-07-31T21:33:17.357Z,5.90
2022-07-31T21:35:44.982Z,5.55
2022-07-31T21:38:12.694Z,5.63
2022-07-31T21:40:40.912Z,4.80
2022-07-31T21:43:09.132Z,5.60
2022-07-31T21:45:46.716Z,6.22
2022-07-31T21:48:24.868Z,10.00
2022-07-31T21:50:53.303Z,6.40
2022-07-31T21:53:20.693Z,5.78
2022-07-31T21:55:47.996Z,4.60
2022-07-31T21:58:15.371Z,4.25
2022-07-31T22:00:42.892Z,4.28
2022-07-31T22:03:10.167Z,3.83
2022-07-31T22:05:56.172Z,3.70
2022-07-31T22:08:23.280Z,4.10
2022-07-31T22:10:51.933Z,4.53
2022-07-31T22:13:19.798Z,3.75
2022-07-31T22:15:58.358Z,4.53
2022-07-31T22:18:28.434Z,4.20
2022-07-31T22:20:56.163Z,2.67
2022-07-31T22:23:23.535Z,2.63
2022-07-31T22:25:50.964Z,4.05
2022-07-31T22:28:22.079Z,3.10
2022-07-31T22:30:50.820Z,2.85
2022-07-31T22:33:18.599Z,3.13
2022-07-31T22:35:58.268Z,5.53
2022-07-31T22:38:29.593Z,3.03
2022-07-31T22:41:00.949Z,4.10
2022-07-31T22:44:11.541Z,3.60
2022-07-31T22:46:15.975Z,3.97
2022-07-31T22:48:45.371Z,3.63
2022-07-31T22:51:14.485Z,4.10
2022-07-31T22:53:43.433Z,4.03
2022-07-31T22:56:10.828Z,3.75
2022-07-31T22:58:38.196Z,4.07
2022-07-31T23:01:05.334Z,3.90
2022-07-31T23:03:32.739Z,3.83
2022-07-31T23:06:13.109Z,3.05
2022-07-31T23:08:53.692Z,3.15
2022-07-31T23:11:23.480Z,3.45
2022-07-31T23:13:51.778Z,3.03
2022-07-31T23:16:21.321Z,3.28
2022-07-31T23:18:49.346Z,3.25
2022-07-31T23:21:17.437Z,3.67
2022-07-31T23:23:48.440Z,3.10
2022-07-31T23:26:21.423Z,4.93
2022-07-31T23:28:48.969Z,3.65
2022-07-31T23:31:17.328Z,5.22
2022-07-31T23:33:45.417Z,4.35
2022-07-31T23:36:13.326Z,4.40
2022-07-31T23:38:41.344Z,5.30
2022-07-31T23:41:09.179Z,13.43
2022-07-31T23:43:36.954Z,49.67
2022-07-31T23:46:05.319Z,29.92
2022-07-31T23:48:33.956Z,19.50
2022-07-31T23:51:01.343Z,14.43
2022-07-31T23:53:28.397Z,17.20
2022-07-31T23:55:55.907Z,15.02
2022-07-31T23:58:23.170Z,14.43
